sensor_id;sensor_type;location;lat;lon;timestamp;temperature;humidity
82243;DHT22;71844;51.528;4.442;2024-01-30T00:03:04;8.80;80.40
82243;DHT22;71844;51.528;4.442;2024-01-30T00:05:31;8.80;80.10
82243;DHT22;71844;51.528;4.442;2024-01-30T00:07:58;8.80;80.20
82243;DHT22;71844;51.528;4.442;2024-01-30T00:10:24;8.90;80.30
82243;DHT22;71844;51.528;4.442;2024-01-30T00:12:51;8.90;80.40
82243;DHT22;71844;51.528;4.442;2024-01-30T00:15:19;8.90;80.60
82243;DHT22;71844;51.528;4.442;2024-01-30T00:17:46;9.00;80.50
82243;DHT22;71844;51.528;4.442;2024-01-30T00:20:13;9.00;80.50
82243;DHT22;71844;51.528;4.442;2024-01-30T00:22:40;9.00;80.50
82243;DHT22;71844;51.528;4.442;2024-01-30T00:25:07;9.10;80.50
82243;DHT22;71844;51.528;4.442;2024-01-30T00:27:34;9.10;80.60
82243;DHT22;71844;51.528;4.442;2024-01-30T00:30:00;9.10;80.70
82243;DHT22;71844;51.528;4.442;2024-01-30T00:32:27;9.20;80.70
82243;DHT22;71844;51.528;4.442;2024-01-30T00:34:54;9.20;80.60
82243;DHT22;71844;51.528;4.442;2024-01-30T00:37:21;9.20;80.70
82243;DHT22;71844;51.528;4.442;2024-01-30T00:39:48;9.30;80.60
82243;DHT22;71844;51.528;4.442;2024-01-30T00:42:15;9.30;80.60
82243;DHT22;71844;51.528;4.442;2024-01-30T00:44:42;9.30;80.50
82243;DHT22;71844;51.528;4.442;2024-01-30T00:47:09;9.30;80.50
82243;DHT22;71844;51.528;4.442;2024-01-30T00:49:36;9.30;80.60
82243;DHT22;71844;51.528;4.442;2024-01-30T00:52:03;9.30;80.50
82243;DHT22;71844;51.528;4.442;2024-01-30T00:54:31;9.40;80.60
82243;DHT22;71844;51.528;4.442;2024-01-30T00:56:57;9.40;80.50
82243;DHT22;71844;51.528;4.442;2024-01-30T00:59:24;9.40;80.40
82243;DHT22;71844;51.528;4.442;2024-01-30T01:01:51;9.40;80.50
82243;DHT22;71844;51.528;4.442;2024-01-30T01:04:18;9.50;80.40
82243;DHT22;71844;51.528;4.442;2024-01-30T01:06:45;9.50;80.40
82243;DHT22;71844;51.528;4.442;2024-01-30T01:09:12;9.50;80.40
82243;DHT22;71844;51.528;4.442;2024-01-30T01:11:39;9.50;80.40
82243;DHT22;71844;51.528;4.442;2024-01-30T01:14:06;9.50;80.40
82243;DHT22;71844;51.528;4.442;2024-01-30T01:16:34;9.40;80.20
82243;DHT22;71844;51.528;4.442;2024-01-30T01:19:00;9.40;80.40
82243;DHT22;71844;51.528;4.442;2024-01-30T01:21:28;9.40;80.40
82243;DHT22;71844;51.528;4.442;2024-01-30T01:23:55;9.40;80.40
82243;DHT22;71844;51.528;4.442;2024-01-30T01:26:21;9.40;80.40
82243;DHT22;71844;51.528;4.442;2024-01-30T01:28:48;9.40;80.30
82243;DHT22;71844;51.528;4.442;2024-01-30T01:31:15;9.40;80.40
82243;DHT22;71844;51.528;4.442;2024-01-30T01:33:44;9.30;80.40
82243;DHT22;71844;51.528;4.442;2024-01-30T01:36:11;9.30;80.50
82243;DHT22;71844;51.528;4.442;2024-01-30T01:38:39;9.40;80.40
82243;DHT22;71844;51.528;4.442;2024-01-30T01:41:06;9.30;80.50
82243;DHT22;71844;51.528;4.442;2024-01-30T01:43:33;9.30;80.50
82243;DHT22;71844;51.528;4.442;2024-01-30T01:46:00;9.30;80.60
82243;DHT22;71844;51.528;4.442;2024-01-30T01:48:28;9.30;80.50
82243;DHT22;71844;51.528;4.442;2024-01-30T01:50:56;9.30;80.50
82243;DHT22;71844;51.528;4.442;2024-01-30T01:53:23;9.30;80.40
82243;DHT22;71844;51.528;4.442;2024-01-30T01:55:51;9.30;80.50
82243;DHT22;71844;51.528;4.442;2024-01-30T01:58:19;9.20;80.60
82243;DHT22;71844;51.528;4.442;2024-01-30T02:03:46;9.20;80.60
82243;DHT22;71844;51.528;4.442;2024-01-30T02:06:14;9.20;80.50
82243;DHT22;71844;51.528;4.442;2024-01-30T02:08:42;9.20;80.60
82243;DHT22;71844;51.528;4.442;2024-01-30T02:11:09;9.20;80.60
82243;DHT22;71844;51.528;4.442;2024-01-30T02:13:37;9.20;80.60
82243;DHT22;71844;51.528;4.442;2024-01-30T02:16:04;9.10;80.50
82243;DHT22;71844;51.528;4.442;2024-01-30T02:18:31;9.10;80.60
82243;DHT22;71844;51.528;4.442;2024-01-30T02:20:58;9.10;80.60
82243;DHT22;71844;51.528;4.442;2024-01-30T02:23:28;9.10;80.60
82243;DHT22;71844;51.528;4.442;2024-01-30T02:25:55;9.00;80.60
82243;DHT22;71844;51.528;4.442;2024-01-30T02:28:22;9.00;80.70
82243;DHT22;71844;51.528;4.442;2024-01-30T02:30:49;9.00;80.90
82243;DHT22;71844;51.528;4.442;2024-01-30T02:33:16;9.00;81.10
82243;DHT22;71844;51.528;4.442;2024-01-30T02:35:43;9.00;81.00
82243;DHT22;71844;51.528;4.442;2024-01-30T02:38:10;9.00;81.10
82243;DHT22;71844;51.528;4.442;2024-01-30T02:40:37;8.90;81.20
82243;DHT22;71844;51.528;4.442;2024-01-30T02:43:05;8.90;81.30
82243;DHT22;71844;51.528;4.442;2024-01-30T02:45:32;9.00;81.30
82243;DHT22;71844;51.528;4.442;2024-01-30T02:47:58;9.00;81.50
82243;DHT22;71844;51.528;4.442;2024-01-30T02:50:25;9.00;81.40
82243;DHT22;71844;51.528;4.442;2024-01-30T02:52:52;9.00;81.40
82243;DHT22;71844;51.528;4.442;2024-01-30T02:55:19;9.00;81.40
82243;DHT22;71844;51.528;4.442;2024-01-30T02:57:46;9.00;81.40
82243;DHT22;71844;51.528;4.442;2024-01-30T03:00:14;9.00;81.40
82243;DHT22;71844;51.528;4.442;2024-01-30T03:02:41;9.00;81.50
82243;DHT22;71844;51.528;4.442;2024-01-30T03:05:08;9.00;81.60
82243;DHT22;71844;51.528;4.442;2024-01-30T03:07:35;9.10;81.60
82243;DHT22;71844;51.528;4.442;2024-01-30T03:10:03;9.10;81.60
82243;DHT22;71844;51.528;4.442;2024-01-30T03:12:30;9.10;81.60
82243;DHT22;71844;51.528;4.442;2024-01-30T03:14:57;9.10;81.70
82243;DHT22;71844;51.528;4.442;2024-01-30T03:17:24;9.10;81.70
82243;DHT22;71844;51.528;4.442;2024-01-30T03:19:51;9.10;81.80
82243;DHT22;71844;51.528;4.442;2024-01-30T03:22:18;9.10;81.90
82243;DHT22;71844;51.528;4.442;2024-01-30T03:24:45;9.20;81.80
82243;DHT22;71844;51.528;4.442;2024-01-30T03:27:15;9.20;81.90
82243;DHT22;71844;51.528;4.442;2024-01-30T03:29:42;9.20;81.90
82243;DHT22;71844;51.528;4.442;2024-01-30T03:32:12;9.20;81.80
82243;DHT22;71844;51.528;4.442;2024-01-30T03:34:39;9.20;81.90
82243;DHT22;71844;51.528;4.442;2024-01-30T03:37:06;9.30;82.10
82243;DHT22;71844;51.528;4.442;2024-01-30T03:39:33;9.30;82.00
82243;DHT22;71844;51.528;4.442;2024-01-30T03:42:00;9.30;81.90
82243;DHT22;71844;51.528;4.442;2024-01-30T03:44:27;9.30;81.80
82243;DHT22;71844;51.528;4.442;2024-01-30T03:46:54;9.30;81.90
82243;DHT22;71844;51.528;4.442;2024-01-30T03:49:21;9.30;81.90
82243;DHT22;71844;51.528;4.442;2024-01-30T03:51:48;9.30;81.80
82243;DHT22;71844;51.528;4.442;2024-01-30T03:54:15;9.30;81.80
82243;DHT22;71844;51.528;4.442;2024-01-30T03:56:42;9.30;81.90
82243;DHT22;71844;51.528;4.442;2024-01-30T03:59:09;9.30;81.80
82243;DHT22;71844;51.528;4.442;2024-01-30T04:01:36;9.30;81.80
82243;DHT22;71844;51.528;4.442;2024-01-30T04:04:03;9.30;81.90
82243;DHT22;71844;51.528;4.442;2024-01-30T04:06:30;9.30;81.90
82243;DHT22;71844;51.528;4.442;2024-01-30T04:08:57;9.30;81.90
82243;DHT22;71844;51.528;4.442;2024-01-30T04:11:24;9.30;81.90
82243;DHT22;71844;51.528;4.442;2024-01-30T04:13:50;9.30;81.80
82243;DHT22;71844;51.528;4.442;2024-01-30T04:16:21;9.30;81.80
82243;DHT22;71844;51.528;4.442;2024-01-30T04:18:52;9.30;81.90
82243;DHT22;71844;51.528;4.442;2024-01-30T04:21:21;9.30;81.90
82243;DHT22;71844;51.528;4.442;2024-01-30T04:23:53;9.30;82.00
82243;DHT22;71844;51.528;4.442;2024-01-30T04:26:20;9.30;82.10
82243;DHT22;71844;51.528;4.442;2024-01-30T04:28:47;9.30;82.10
82243;DHT22;71844;51.528;4.442;2024-01-30T04:31:14;9.40;82.20
82243;DHT22;71844;51.528;4.442;2024-01-30T04:33:41;9.40;82.20
82243;DHT22;71844;51.528;4.442;2024-01-30T04:36:09;9.40;82.20
82243;DHT22;71844;51.528;4.442;2024-01-30T04:38:39;9.40;82.20
82243;DHT22;71844;51.528;4.442;2024-01-30T04:41:06;9.40;82.10
82243;DHT22;71844;51.528;4.442;2024-01-30T04:43:32;9.40;82.20
82243;DHT22;71844;51.528;4.442;2024-01-30T04:45:59;9.40;82.20
82243;DHT22;71844;51.528;4.442;2024-01-30T04:48:26;9.40;82.10
82243;DHT22;71844;51.528;4.442;2024-01-30T04:50:54;9.40;82.20
82243;DHT22;71844;51.528;4.442;2024-01-30T04:53:22;9.40;82.10
82243;DHT22;71844;51.528;4.442;2024-01-30T04:55:49;9.50;82.30
82243;DHT22;71844;51.528;4.442;2024-01-30T04:58:17;9.50;82.30
82243;DHT22;71844;51.528;4.442;2024-01-30T05:00:44;9.50;82.20
82243;DHT22;71844;51.528;4.442;2024-01-30T05:03:12;9.50;82.30
82243;DHT22;71844;51.528;4.442;2024-01-30T05:05:40;9.50;82.20
82243;DHT22;71844;51.528;4.442;2024-01-30T05:08:14;9.50;82.20
82243;DHT22;71844;51.528;4.442;2024-01-30T05:10:41;9.50;82.20
82243;DHT22;71844;51.528;4.442;2024-01-30T05:13:08;9.50;82.20
82243;DHT22;71844;51.528;4.442;2024-01-30T05:18:10;9.50;82.30
82243;DHT22;71844;51.528;4.442;2024-01-30T05:20:37;9.50;82.30
82243;DHT22;71844;51.528;4.442;2024-01-30T05:23:04;9.50;82.40
82243;DHT22;71844;51.528;4.442;2024-01-30T05:25:31;9.50;82.40
82243;DHT22;71844;51.528;4.442;2024-01-30T05:27:57;9.50;82.30
82243;DHT22;71844;51.528;4.442;2024-01-30T05:30:24;9.50;82.30
82243;DHT22;71844;51.528;4.442;2024-01-30T05:32:51;9.50;82.40
82243;DHT22;71844;51.528;4.442;2024-01-30T05:35:19;9.50;82.50
82243;DHT22;71844;51.528;4.442;2024-01-30T05:37:51;9.60;82.30
82243;DHT22;71844;51.528;4.442;2024-01-30T05:40:18;9.60;82.30
82243;DHT22;71844;51.528;4.442;2024-01-30T05:42:45;9.60;82.30
82243;DHT22;71844;51.528;4.442;2024-01-30T05:45:12;9.60;82.20
82243;DHT22;71844;51.528;4.442;2024-01-30T05:47:39;9.60;82.40
82243;DHT22;71844;51.528;4.442;2024-01-30T05:50:07;9.60;82.40
82243;DHT22;71844;51.528;4.442;2024-01-30T05:52:34;9.60;82.40
82243;DHT22;71844;51.528;4.442;2024-01-30T05:55:01;9.60;82.50
82243;DHT22;71844;51.528;4.442;2024-01-30T05:57:28;9.60;82.40
82243;DHT22;71844;51.528;4.442;2024-01-30T05:59:55;9.70;82.50
82243;DHT22;71844;51.528;4.442;2024-01-30T06:02:21;9.70;82.50
82243;DHT22;71844;51.528;4.442;2024-01-30T06:04:48;9.70;82.30
82243;DHT22;71844;51.528;4.442;2024-01-30T06:07:15;9.70;82.30
82243;DHT22;71844;51.528;4.442;2024-01-30T06:09:44;9.70;82.30
82243;DHT22;71844;51.528;4.442;2024-01-30T06:12:12;9.70;82.40
82243;DHT22;71844;51.528;4.442;2024-01-30T06:14:39;9.70;82.50
82243;DHT22;71844;51.528;4.442;2024-01-30T06:17:09;9.70;82.50
82243;DHT22;71844;51.528;4.442;2024-01-30T06:19:38;9.70;82.50
82243;DHT22;71844;51.528;4.442;2024-01-30T06:22:06;9.80;82.50
82243;DHT22;71844;51.528;4.442;2024-01-30T06:24:32;9.80;82.50
82243;DHT22;71844;51.528;4.442;2024-01-30T06:27:00;9.80;82.50
82243;DHT22;71844;51.528;4.442;2024-01-30T06:29:27;9.80;82.50
82243;DHT22;71844;51.528;4.442;2024-01-30T06:31:54;9.80;82.60
82243;DHT22;71844;51.528;4.442;2024-01-30T06:34:21;9.90;82.50
82243;DHT22;71844;51.528;4.442;2024-01-30T06:36:48;9.90;82.50
82243;DHT22;71844;51.528;4.442;2024-01-30T06:39:15;9.90;82.40
82243;DHT22;71844;51.528;4.442;2024-01-30T06:41:42;9.90;82.40
82243;DHT22;71844;51.528;4.442;2024-01-30T06:44:08;9.90;82.40
82243;DHT22;71844;51.528;4.442;2024-01-30T06:46:35;10.00;82.40
82243;DHT22;71844;51.528;4.442;2024-01-30T06:49:02;10.00;82.50
82243;DHT22;71844;51.528;4.442;2024-01-30T06:51:29;10.00;82.40
82243;DHT22;71844;51.528;4.442;2024-01-30T06:53:56;10.00;82.30
82243;DHT22;71844;51.528;4.442;2024-01-30T06:56:23;10.00;82.30
82243;DHT22;71844;51.528;4.442;2024-01-30T06:58:50;10.10;82.30
82243;DHT22;71844;51.528;4.442;2024-01-30T07:01:20;10.10;82.50
82243;DHT22;71844;51.528;4.442;2024-01-30T07:03:47;10.10;82.40
82243;DHT22;71844;51.528;4.442;2024-01-30T07:06:14;10.10;82.30
82243;DHT22;71844;51.528;4.442;2024-01-30T07:08:41;10.10;82.30
82243;DHT22;71844;51.528;4.442;2024-01-30T07:11:08;10.10;82.20
82243;DHT22;71844;51.528;4.442;2024-01-30T07:13:35;10.10;82.20
82243;DHT22;71844;51.528;4.442;2024-01-30T07:16:02;10.20;82.30
82243;DHT22;71844;51.528;4.442;2024-01-30T07:21:35;10.10;82.20
82243;DHT22;71844;51.528;4.442;2024-01-30T07:24:02;10.10;82.20
82243;DHT22;71844;51.528;4.442;2024-01-30T07:26:29;10.10;82.20
82243;DHT22;71844;51.528;4.442;2024-01-30T07:28:56;10.10;82.20
82243;DHT22;71844;51.528;4.442;2024-01-30T07:31:23;10.20;82.20
82243;DHT22;71844;51.528;4.442;2024-01-30T07:33:50;10.10;82.20
82243;DHT22;71844;51.528;4.442;2024-01-30T07:36:17;10.20;82.20
82243;DHT22;71844;51.528;4.442;2024-01-30T07:38:44;10.20;82.10
82243;DHT22;71844;51.528;4.442;2024-01-30T07:41:11;10.20;82.00
82243;DHT22;71844;51.528;4.442;2024-01-30T07:43:38;10.20;82.10
82243;DHT22;71844;51.528;4.442;2024-01-30T07:46:05;10.20;82.10
82243;DHT22;71844;51.528;4.442;2024-01-30T07:48:33;10.20;82.20
82243;DHT22;71844;51.528;4.442;2024-01-30T07:51:00;10.20;82.10
82243;DHT22;71844;51.528;4.442;2024-01-30T07:53:27;10.20;82.10
82243;DHT22;71844;51.528;4.442;2024-01-30T07:55:54;10.20;82.10
82243;DHT22;71844;51.528;4.442;2024-01-30T07:58:21;10.20;82.10
82243;DHT22;71844;51.528;4.442;2024-01-30T08:00:48;10.20;82.10
82243;DHT22;71844;51.528;4.442;2024-01-30T08:03:15;10.20;82.10
82243;DHT22;71844;51.528;4.442;2024-01-30T08:05:44;10.20;82.00
82243;DHT22;71844;51.528;4.442;2024-01-30T08:08:11;10.30;82.00
82243;DHT22;71844;51.528;4.442;2024-01-30T08:10:37;10.30;82.00
82243;DHT22;71844;51.528;4.442;2024-01-30T08:13:04;10.30;82.00
82243;DHT22;71844;51.528;4.442;2024-01-30T08:15:31;10.30;82.10
82243;DHT22;71844;51.528;4.442;2024-01-30T08:17:58;10.30;82.10
82243;DHT22;71844;51.528;4.442;2024-01-30T08:20:25;10.30;82.10
82243;DHT22;71844;51.528;4.442;2024-01-30T08:22:52;10.30;82.20
82243;DHT22;71844;51.528;4.442;2024-01-30T08:25:19;10.30;82.20
82243;DHT22;71844;51.528;4.442;2024-01-30T08:27:46;10.40;82.20
82243;DHT22;71844;51.528;4.442;2024-01-30T08:30:13;10.40;82.10
82243;DHT22;71844;51.528;4.442;2024-01-30T08:32:40;10.40;82.40
82243;DHT22;71844;51.528;4.442;2024-01-30T08:35:07;10.50;82.40
82243;DHT22;71844;51.528;4.442;2024-01-30T08:37:35;10.50;82.30
82243;DHT22;71844;51.528;4.442;2024-01-30T08:40:03;10.50;82.40
82243;DHT22;71844;51.528;4.442;2024-01-30T08:42:31;10.60;82.40
82243;DHT22;71844;51.528;4.442;2024-01-30T08:45:01;10.60;82.30
82243;DHT22;71844;51.528;4.442;2024-01-30T08:47:27;10.70;82.10
82243;DHT22;71844;51.528;4.442;2024-01-30T08:49:54;10.70;82.10
82243;DHT22;71844;51.528;4.442;2024-01-30T08:52:21;10.70;81.90
82243;DHT22;71844;51.528;4.442;2024-01-30T08:54:48;10.80;81.90
82243;DHT22;71844;51.528;4.442;2024-01-30T08:57:17;10.80;81.90
82243;DHT22;71844;51.528;4.442;2024-01-30T08:59:44;10.80;81.80
82243;DHT22;71844;51.528;4.442;2024-01-30T09:02:13;10.80;81.80
82243;DHT22;71844;51.528;4.442;2024-01-30T09:04:43;10.80;81.80
82243;DHT22;71844;51.528;4.442;2024-01-30T09:07:12;10.80;81.80
82243;DHT22;71844;51.528;4.442;2024-01-30T09:09:40;10.80;81.90
82243;DHT22;71844;51.528;4.442;2024-01-30T09:12:08;10.90;81.70
82243;DHT22;71844;51.528;4.442;2024-01-30T09:14:37;10.90;81.60
82243;DHT22;71844;51.528;4.442;2024-01-30T09:17:04;10.90;81.50
82243;DHT22;71844;51.528;4.442;2024-01-30T09:19:31;10.90;81.40
82243;DHT22;71844;51.528;4.442;2024-01-30T09:21:58;10.90;81.50
82243;DHT22;71844;51.528;4.442;2024-01-30T09:24:26;10.80;81.50
82243;DHT22;71844;51.528;4.442;2024-01-30T09:29:28;10.80;81.40
82243;DHT22;71844;51.528;4.442;2024-01-30T09:31:55;10.80;81.60
82243;DHT22;71844;51.528;4.442;2024-01-30T09:34:22;10.80;81.50
82243;DHT22;71844;51.528;4.442;2024-01-30T09:36:49;10.80;81.60
82243;DHT22;71844;51.528;4.442;2024-01-30T09:39:16;10.80;81.60
82243;DHT22;71844;51.528;4.442;2024-01-30T09:44:38;10.70;81.70
82243;DHT22;71844;51.528;4.442;2024-01-30T09:47:08;10.70;81.60
82243;DHT22;71844;51.528;4.442;2024-01-30T09:49:35;10.70;81.70
82243;DHT22;71844;51.528;4.442;2024-01-30T09:52:04;10.70;81.70
82243;DHT22;71844;51.528;4.442;2024-01-30T09:54:32;10.70;81.80
82243;DHT22;71844;51.528;4.442;2024-01-30T09:57:03;10.80;81.70
82243;DHT22;71844;51.528;4.442;2024-01-30T09:59:30;10.80;81.90
82243;DHT22;71844;51.528;4.442;2024-01-30T10:01:57;10.80;81.90
82243;DHT22;71844;51.528;4.442;2024-01-30T10:04:24;10.80;81.80
82243;DHT22;71844;51.528;4.442;2024-01-30T10:06:51;10.90;81.80
82243;DHT22;71844;51.528;4.442;2024-01-30T10:09:18;10.90;81.70
82243;DHT22;71844;51.528;4.442;2024-01-30T10:11:46;11.00;81.70
82243;DHT22;71844;51.528;4.442;2024-01-30T10:14:12;11.10;81.50
82243;DHT22;71844;51.528;4.442;2024-01-30T10:16:39;11.10;81.30
82243;DHT22;71844;51.528;4.442;2024-01-30T10:19:06;11.20;80.90
82243;DHT22;71844;51.528;4.442;2024-01-30T10:21:33;11.20;80.50
82243;DHT22;71844;51.528;4.442;2024-01-30T10:24:00;11.20;80.10
82243;DHT22;71844;51.528;4.442;2024-01-30T10:26:27;11.20;80.00
82243;DHT22;71844;51.528;4.442;2024-01-30T10:28:55;11.20;79.80
82243;DHT22;71844;51.528;4.442;2024-01-30T10:31:22;11.20;79.60
82243;DHT22;71844;51.528;4.442;2024-01-30T10:33:49;11.20;79.60
82243;DHT22;71844;51.528;4.442;2024-01-30T10:36:17;11.10;79.20
82243;DHT22;71844;51.528;4.442;2024-01-30T10:38:49;11.20;79.30
82243;DHT22;71844;51.528;4.442;2024-01-30T10:41:21;11.20;79.20
82243;DHT22;71844;51.528;4.442;2024-01-30T10:44:02;11.20;78.80
82243;DHT22;71844;51.528;4.442;2024-01-30T10:46:31;11.20;78.60
82243;DHT22;71844;51.528;4.442;2024-01-30T10:48:59;11.20;78.00
82243;DHT22;71844;51.528;4.442;2024-01-30T10:51:28;11.30;78.10
82243;DHT22;71844;51.528;4.442;2024-01-30T10:53:56;11.30;77.20
82243;DHT22;71844;51.528;4.442;2024-01-30T10:56:25;11.30;77.00
82243;DHT22;71844;51.528;4.442;2024-01-30T10:58:53;11.10;76.70
82243;DHT22;71844;51.528;4.442;2024-01-30T11:01:21;10.90;76.70
82243;DHT22;71844;51.528;4.442;2024-01-30T11:03:53;10.80;76.90
82243;DHT22;71844;51.528;4.442;2024-01-30T11:06:25;10.70;76.70
82243;DHT22;71844;51.528;4.442;2024-01-30T11:09:02;10.50;76.50
82243;DHT22;71844;51.528;4.442;2024-01-30T11:11:57;10.50;76.60
82243;DHT22;71844;51.528;4.442;2024-01-30T11:14:29;10.40;76.40
82243;DHT22;71844;51.528;4.442;2024-01-30T11:17:00;10.40;76.40
82243;DHT22;71844;51.528;4.442;2024-01-30T11:19:27;10.40;76.40
82243;DHT22;71844;51.528;4.442;2024-01-30T11:21:57;10.40;76.40
82243;DHT22;71844;51.528;4.442;2024-01-30T11:24:25;10.40;76.60
82243;DHT22;71844;51.528;4.442;2024-01-30T11:26:56;10.40;76.60
82243;DHT22;71844;51.528;4.442;2024-01-30T11:29:28;10.40;76.50
82243;DHT22;71844;51.528;4.442;2024-01-30T11:31:56;10.40;76.20
82243;DHT22;71844;51.528;4.442;2024-01-30T11:34:24;10.40;76.00
82243;DHT22;71844;51.528;4.442;2024-01-30T11:36:59;10.40;75.70
82243;DHT22;71844;51.528;4.442;2024-01-30T11:39:26;10.30;75.50
82243;DHT22;71844;51.528;4.442;2024-01-30T11:41:54;10.30;75.30
82243;DHT22;71844;51.528;4.442;2024-01-30T11:44:22;10.30;74.80
82243;DHT22;71844;51.528;4.442;2024-01-30T11:46:50;10.30;74.20
82243;DHT22;71844;51.528;4.442;2024-01-30T11:49:18;10.30;74.00
82243;DHT22;71844;51.528;4.442;2024-01-30T11:51:48;10.30;73.90
82243;DHT22;71844;51.528;4.442;2024-01-30T11:54:16;10.20;73.60
82243;DHT22;71844;51.528;4.442;2024-01-30T11:56:43;10.20;73.70
82243;DHT22;71844;51.528;4.442;2024-01-30T11:59:10;10.10;73.30
82243;DHT22;71844;51.528;4.442;2024-01-30T12:01:37;10.10;73.50
82243;DHT22;71844;51.528;4.442;2024-01-30T12:04:04;10.10;73.40
82243;DHT22;71844;51.528;4.442;2024-01-30T12:06:36;10.10;73.60
82243;DHT22;71844;51.528;4.442;2024-01-30T12:09:04;10.10;73.60
82243;DHT22;71844;51.528;4.442;2024-01-30T12:11:31;10.20;73.60
82243;DHT22;71844;51.528;4.442;2024-01-30T12:13:58;10.10;73.60
82243;DHT22;71844;51.528;4.442;2024-01-30T12:16:25;10.10;73.60
82243;DHT22;71844;51.528;4.442;2024-01-30T12:19:00;10.10;73.70
82243;DHT22;71844;51.528;4.442;2024-01-30T12:21:29;10.10;73.90
82243;DHT22;71844;51.528;4.442;2024-01-30T12:23:57;10.00;73.90
82243;DHT22;71844;51.528;4.442;2024-01-30T12:26:24;10.00;74.20
82243;DHT22;71844;51.528;4.442;2024-01-30T12:28:55;10.00;74.50
82243;DHT22;71844;51.528;4.442;2024-01-30T12:31:26;9.90;74.60
82243;DHT22;71844;51.528;4.442;2024-01-30T12:33:55;9.90;74.70
82243;DHT22;71844;51.528;4.442;2024-01-30T12:36:22;9.80;75.00
82243;DHT22;71844;51.528;4.442;2024-01-30T12:38:50;9.80;75.10
82243;DHT22;71844;51.528;4.442;2024-01-30T12:41:17;9.70;75.30
82243;DHT22;71844;51.528;4.442;2024-01-30T12:43:45;9.70;75.40
82243;DHT22;71844;51.528;4.442;2024-01-30T12:46:17;9.60;75.60
82243;DHT22;71844;51.528;4.442;2024-01-30T12:48:44;9.50;75.70
82243;DHT22;71844;51.528;4.442;2024-01-30T12:51:11;9.50;75.90
82243;DHT22;71844;51.528;4.442;2024-01-30T12:53:38;9.50;76.10
82243;DHT22;71844;51.528;4.442;2024-01-30T12:56:05;9.50;76.20
82243;DHT22;71844;51.528;4.442;2024-01-30T12:58:32;9.50;76.20
82243;DHT22;71844;51.528;4.442;2024-01-30T13:00:58;9.50;76.30
82243;DHT22;71844;51.528;4.442;2024-01-30T13:03:25;9.50;76.30
82243;DHT22;71844;51.528;4.442;2024-01-30T13:05:53;9.50;76.30
82243;DHT22;71844;51.528;4.442;2024-01-30T13:08:21;9.50;76.40
82243;DHT22;71844;51.528;4.442;2024-01-30T13:10:48;9.40;76.30
82243;DHT22;71844;51.528;4.442;2024-01-30T13:13:16;9.40;76.20
82243;DHT22;71844;51.528;4.442;2024-01-30T13:15:47;9.40;76.20
82243;DHT22;71844;51.528;4.442;2024-01-30T13:18:14;9.30;76.40
82243;DHT22;71844;51.528;4.442;2024-01-30T13:20:41;9.30;76.30
82243;DHT22;71844;51.528;4.442;2024-01-30T13:23:09;9.30;76.30
82243;DHT22;71844;51.528;4.442;2024-01-30T13:25:36;9.20;76.30
82243;DHT22;71844;51.528;4.442;2024-01-30T13:28:03;9.20;76.40
82243;DHT22;71844;51.528;4.442;2024-01-30T13:30:30;9.20;76.30
82243;DHT22;71844;51.528;4.442;2024-01-30T13:32:58;9.20;76.20
82243;DHT22;71844;51.528;4.442;2024-01-30T13:35:25;9.20;76.20
82243;DHT22;71844;51.528;4.442;2024-01-30T13:37:52;9.20;76.20
82243;DHT22;71844;51.528;4.442;2024-01-30T13:40:19;9.20;76.10
82243;DHT22;71844;51.528;4.442;2024-01-30T13:42:46;9.20;76.20
82243;DHT22;71844;51.528;4.442;2024-01-30T13:45:13;9.20;76.20
82243;DHT22;71844;51.528;4.442;2024-01-30T13:47:40;9.20;76.20
82243;DHT22;71844;51.528;4.442;2024-01-30T13:50:07;9.20;76.20
82243;DHT22;71844;51.528;4.442;2024-01-30T13:52:35;9.20;76.10
82243;DHT22;71844;51.528;4.442;2024-01-30T13:55:11;9.30;76.20
82243;DHT22;71844;51.528;4.442;2024-01-30T13:57:38;9.30;76.10
82243;DHT22;71844;51.528;4.442;2024-01-30T14:00:05;9.30;76.10
82243;DHT22;71844;51.528;4.442;2024-01-30T14:02:33;9.30;76.30
82243;DHT22;71844;51.528;4.442;2024-01-30T14:05:01;9.30;76.30
82243;DHT22;71844;51.528;4.442;2024-01-30T14:07:28;9.30;76.40
82243;DHT22;71844;51.528;4.442;2024-01-30T14:09:55;9.20;76.40
82243;DHT22;71844;51.528;4.442;2024-01-30T14:12:23;9.20;76.50
82243;DHT22;71844;51.528;4.442;2024-01-30T14:14:50;9.20;76.60
82243;DHT22;71844;51.528;4.442;2024-01-30T14:17:17;9.10;77.00
82243;DHT22;71844;51.528;4.442;2024-01-30T14:19:44;9.00;77.50
82243;DHT22;71844;51.528;4.442;2024-01-30T14:22:11;8.90;77.90
82243;DHT22;71844;51.528;4.442;2024-01-30T14:24:38;8.80;78.50
82243;DHT22;71844;51.528;4.442;2024-01-30T14:27:05;8.70;78.70
82243;DHT22;71844;51.528;4.442;2024-01-30T14:29:31;8.60;79.40
82243;DHT22;71844;51.528;4.442;2024-01-30T14:31:58;8.50;79.90
82243;DHT22;71844;51.528;4.442;2024-01-30T14:34:25;8.50;80.50
82243;DHT22;71844;51.528;4.442;2024-01-30T14:36:52;8.40;80.70
82243;DHT22;71844;51.528;4.442;2024-01-30T14:39:19;8.40;80.90
82243;DHT22;71844;51.528;4.442;2024-01-30T14:41:46;8.40;81.10
82243;DHT22;71844;51.528;4.442;2024-01-30T14:44:13;8.40;81.20
82243;DHT22;71844;51.528;4.442;2024-01-30T14:46:40;8.40;82.10
82243;DHT22;71844;51.528;4.442;2024-01-30T14:49:07;8.30;81.60
82243;DHT22;71844;51.528;4.442;2024-01-30T14:51:36;8.30;81.70
82243;DHT22;71844;51.528;4.442;2024-01-30T14:54:03;8.30;82.00
82243;DHT22;71844;51.528;4.442;2024-01-30T14:56:30;8.30;82.30
82243;DHT22;71844;51.528;4.442;2024-01-30T14:58:57;8.30;82.30
82243;DHT22;71844;51.528;4.442;2024-01-30T15:01:25;8.30;82.30
82243;DHT22;71844;51.528;4.442;2024-01-30T15:03:52;8.30;82.30
82243;DHT22;71844;51.528;4.442;2024-01-30T15:06:19;8.30;82.40
82243;DHT22;71844;51.528;4.442;2024-01-30T15:08:45;8.40;82.30
82243;DHT22;71844;51.528;4.442;2024-01-30T15:11:12;8.40;82.50
82243;DHT22;71844;51.528;4.442;2024-01-30T15:13:39;8.40;82.80
82243;DHT22;71844;51.528;4.442;2024-01-30T15:16:06;8.40;82.70
82243;DHT22;71844;51.528;4.442;2024-01-30T15:18:34;8.40;82.90
82243;DHT22;71844;51.528;4.442;2024-01-30T15:21:01;8.40;83.20
82243;DHT22;71844;51.528;4.442;2024-01-30T15:23:27;8.30;82.90
82243;DHT22;71844;51.528;4.442;2024-01-30T15:25:55;8.30;83.10
82243;DHT22;71844;51.528;4.442;2024-01-30T15:28:35;8.30;83.30
82243;DHT22;71844;51.528;4.442;2024-01-30T15:31:04;8.30;83.30
82243;DHT22;71844;51.528;4.442;2024-01-30T15:33:32;8.20;83.40
82243;DHT22;71844;51.528;4.442;2024-01-30T15:36:00;8.20;83.50
82243;DHT22;71844;51.528;4.442;2024-01-30T15:38:27;8.20;83.70
82243;DHT22;71844;51.528;4.442;2024-01-30T15:40:56;8.20;83.50
82243;DHT22;71844;51.528;4.442;2024-01-30T15:43:23;8.20;84.10
82243;DHT22;71844;51.528;4.442;2024-01-30T15:45:50;8.10;84.20
82243;DHT22;71844;51.528;4.442;2024-01-30T15:48:20;8.10;84.00
82243;DHT22;71844;51.528;4.442;2024-01-30T15:50:48;8.10;83.90
82243;DHT22;71844;51.528;4.442;2024-01-30T15:53:14;8.10;84.10
82243;DHT22;71844;51.528;4.442;2024-01-30T15:55:41;8.10;83.80
82243;DHT22;71844;51.528;4.442;2024-01-30T15:58:08;8.10;84.00